sensor_id;sensor_type;location;lat;lon;timestamp;P1;P2;P0
47741;PMS5003;33504;52.066;6.096;2022-11-03T00:00:18;6;5;
47741;PMS5003;33504;52.066;6.096;2022-11-03T00:02:44;5;5;
47741;PMS5003;33504;52.066;6.096;2022-11-03T00:05:11;5;4;
47741;PMS5003;33504;52.066;6.096;2022-11-03T00:07:38;3;3;
47741;PMS5003;33504;52.066;6.096;2022-11-03T00:10:05;7;6;
47741;PMS5003;33504;52.066;6.096;2022-11-03T00:12:33;9;6;
47741;PMS5003;33504;52.066;6.096;2022-11-03T00:15:00;4;4;
47741;PMS5003;33504;52.066;6.096;2022-11-03T00:17:26;7;5;
47741;PMS5003;33504;52.066;6.096;2022-11-03T00:19:54;5;5;
47741;PMS5003;33504;52.066;6.096;2022-11-03T00:22:21;8;5;
47741;PMS5003;33504;52.066;6.096;2022-11-03T00:24:47;4;3;
47741;PMS5003;33504;52.066;6.096;2022-11-03T00:27:15;8;7;
47741;PMS5003;33504;52.066;6.096;2022-11-03T00:29:41;7;6;
47741;PMS5003;33504;52.066;6.096;2022-11-03T00:32:08;9;5;
47741;PMS5003;33504;52.066;6.096;2022-11-03T00:34:35;4;4;
47741;PMS5003;33504;52.066;6.096;2022-11-03T00:37:02;6;5;
47741;PMS5003;33504;52.066;6.096;2022-11-03T00:39:28;4;3;
47741;PMS5003;33504;52.066;6.096;2022-11-03T00:41:55;6;5;
47741;PMS5003;33504;52.066;6.096;2022-11-03T00:44:23;5;5;
47741;PMS5003;33504;52.066;6.096;2022-11-03T00:46:50;11;8;
47741;PMS5003;33504;52.066;6.096;2022-11-03T00:49:17;8;5;
47741;PMS5003;33504;52.066;6.096;2022-11-03T00:51:44;3;3;
47741;PMS5003;33504;52.066;6.096;2022-11-03T00:54:10;4;4;
47741;PMS5003;33504;52.066;6.096;2022-11-03T00:56:38;5;4;
47741;PMS5003;33504;52.066;6.096;2022-11-03T00:59:07;6;5;
47741;PMS5003;33504;52.066;6.096;2022-11-03T01:01:36;4;4;
47741;PMS5003;33504;52.066;6.096;2022-11-03T01:04:04;8;5;
47741;PMS5003;33504;52.066;6.096;2022-11-03T01:06:32;4;4;
47741;PMS5003;33504;52.066;6.096;2022-11-03T01:09:00;6;4;
47741;PMS5003;33504;52.066;6.096;2022-11-03T01:11:27;6;5;
47741;PMS5003;33504;52.066;6.096;2022-11-03T01:13:54;6;5;
47741;PMS5003;33504;52.066;6.096;2022-11-03T01:16:22;8;6;
47741;PMS5003;33504;52.066;6.096;2022-11-03T01:18:49;11;10;
47741;PMS5003;33504;52.066;6.096;2022-11-03T01:21:17;6;6;
47741;PMS5003;33504;52.066;6.096;2022-11-03T01:23:44;7;6;
47741;PMS5003;33504;52.066;6.096;2022-11-03T01:26:12;5;5;
47741;PMS5003;33504;52.066;6.096;2022-11-03T01:28:40;7;6;
47741;PMS5003;33504;52.066;6.096;2022-11-03T01:31:11;6;5;
47741;PMS5003;33504;52.066;6.096;2022-11-03T01:33:39;8;5;
47741;PMS5003;33504;52.066;6.096;2022-11-03T01:36:07;5;4;
47741;PMS5003;33504;52.066;6.096;2022-11-03T01:38:35;5;5;
47741;PMS5003;33504;52.066;6.096;2022-11-03T01:41:04;6;5;
47741;PMS5003;33504;52.066;6.096;2022-11-03T01:43:32;8;7;
47741;PMS5003;33504;52.066;6.096;2022-11-03T01:46:02;6;4;
47741;PMS5003;33504;52.066;6.096;2022-11-03T01:48:33;7;7;
47741;PMS5003;33504;52.066;6.096;2022-11-03T01:51:01;8;5;
47741;PMS5003;33504;52.066;6.096;2022-11-03T01:53:31;8;5;
47741;PMS5003;33504;52.066;6.096;2022-11-03T01:56:00;6;6;
47741;PMS5003;33504;52.066;6.096;2022-11-03T01:58:29;5;4;
47741;PMS5003;33504;52.066;6.096;2022-11-03T02:00:58;4;4;
47741;PMS5003;33504;52.066;6.096;2022-11-03T02:03:28;4;3;
47741;PMS5003;33504;52.066;6.096;2022-11-03T02:06:01;7;4;
47741;PMS5003;33504;52.066;6.096;2022-11-03T02:08:30;8;6;
47741;PMS5003;33504;52.066;6.096;2022-11-03T02:11:01;6;6;
47741;PMS5003;33504;52.066;6.096;2022-11-03T02:13:28;7;6;
47741;PMS5003;33504;52.066;6.096;2022-11-03T02:15:55;4;4;
47741;PMS5003;33504;52.066;6.096;2022-11-03T02:18:25;10;8;
47741;PMS5003;33504;52.066;6.096;2022-11-03T02:20:56;5;4;
47741;PMS5003;33504;52.066;6.096;2022-11-03T02:23:31;4;4;
47741;PMS5003;33504;52.066;6.096;2022-11-03T02:26:05;5;5;
47741;PMS5003;33504;52.066;6.096;2022-11-03T02:28:34;6;5;
47741;PMS5003;33504;52.066;6.096;2022-11-03T02:31:04;6;5;
47741;PMS5003;33504;52.066;6.096;2022-11-03T02:33:36;13;10;
47741;PMS5003;33504;52.066;6.096;2022-11-03T02:36:12;5;5;
47741;PMS5003;33504;52.066;6.096;2022-11-03T02:38:46;4;4;
47741;PMS5003;33504;52.066;6.096;2022-11-03T02:41:18;6;5;
47741;PMS5003;33504;52.066;6.096;2022-11-03T02:43:47;8;7;
47741;PMS5003;33504;52.066;6.096;2022-11-03T02:46:14;5;4;
47741;PMS5003;33504;52.066;6.096;2022-11-03T02:48:42;6;5;
47741;PMS5003;33504;52.066;6.096;2022-11-03T02:51:09;6;5;
47741;PMS5003;33504;52.066;6.096;2022-11-03T02:53:38;4;4;
47741;PMS5003;33504;52.066;6.096;2022-11-03T02:56:11;4;4;
47741;PMS5003;33504;52.066;6.096;2022-11-03T02:58:45;6;5;
47741;PMS5003;33504;52.066;6.096;2022-11-03T03:01:22;4;4;
47741;PMS5003;33504;52.066;6.096;2022-11-03T03:03:53;7;5;
47741;PMS5003;33504;52.066;6.096;2022-11-03T03:06:24;4;4;
47741;PMS5003;33504;52.066;6.096;2022-11-03T03:08:55;4;3;
47741;PMS5003;33504;52.066;6.096;2022-11-03T03:11:24;10;9;
47741;PMS5003;33504;52.066;6.096;2022-11-03T03:13:51;6;6;
47741;PMS5003;33504;52.066;6.096;2022-11-03T03:16:19;7;6;
47741;PMS5003;33504;52.066;6.096;2022-11-03T03:18:54;6;5;
47741;PMS5003;33504;52.066;6.096;2022-11-03T03:21:30;3;2;
47741;PMS5003;33504;52.066;6.096;2022-11-03T03:24:04;5;4;
47741;PMS5003;33504;52.066;6.096;2022-11-03T03:26:35;5;3;
47741;PMS5003;33504;52.066;6.096;2022-11-03T03:29:08;9;6;
47741;PMS5003;33504;52.066;6.096;2022-11-03T03:31:41;5;4;
47741;PMS5003;33504;52.066;6.096;2022-11-03T03:34:12;5;4;
47741;PMS5003;33504;52.066;6.096;2022-11-03T03:36:42;6;4;
47741;PMS5003;33504;52.066;6.096;2022-11-03T03:39:13;5;5;
47741;PMS5003;33504;52.066;6.096;2022-11-03T03:41:41;6;5;
47741;PMS5003;33504;52.066;6.096;2022-11-03T03:44:10;5;4;
47741;PMS5003;33504;52.066;6.096;2022-11-03T03:46:40;6;5;
47741;PMS5003;33504;52.066;6.096;2022-11-03T03:49:09;8;8;
47741;PMS5003;33504;52.066;6.096;2022-11-03T03:51:37;4;4;
47741;PMS5003;33504;52.066;6.096;2022-11-03T03:54:04;7;4;
47741;PMS5003;33504;52.066;6.096;2022-11-03T03:56:32;5;4;
47741;PMS5003;33504;52.066;6.096;2022-11-03T03:59:05;8;8;
47741;PMS5003;33504;52.066;6.096;2022-11-03T04:01:32;4;4;
47741;PMS5003;33504;52.066;6.096;2022-11-03T04:03:58;5;5;
47741;PMS5003;33504;52.066;6.096;2022-11-03T04:06:25;7;5;
47741;PMS5003;33504;52.066;6.096;2022-11-03T04:08:53;9;6;
47741;PMS5003;33504;52.066;6.096;2022-11-03T04:11:19;6;5;
47741;PMS5003;33504;52.066;6.096;2022-11-03T04:13:46;3;3;
47741;PMS5003;33504;52.066;6.096;2022-11-03T04:16:13;6;5;
47741;PMS5003;33504;52.066;6.096;2022-11-03T04:18:40;8;5;
47741;PMS5003;33504;52.066;6.096;2022-11-03T04:21:08;9;7;
47741;PMS5003;33504;52.066;6.096;2022-11-03T04:23:37;4;4;
47741;PMS5003;33504;52.066;6.096;2022-11-03T04:26:05;3;3;
47741;PMS5003;33504;52.066;6.096;2022-11-03T04:28:37;9;6;
47741;PMS5003;33504;52.066;6.096;2022-11-03T04:31:05;5;4;
47741;PMS5003;33504;52.066;6.096;2022-11-03T04:33:35;8;7;
47741;PMS5003;33504;52.066;6.096;2022-11-03T04:36:04;4;4;
47741;PMS5003;33504;52.066;6.096;2022-11-03T04:38:39;5;3;
47741;PMS5003;33504;52.066;6.096;2022-11-03T04:41:11;6;5;
47741;PMS5003;33504;52.066;6.096;2022-11-03T04:43:41;6;5;
47741;PMS5003;33504;52.066;6.096;2022-11-03T04:46:10;6;5;
47741;PMS5003;33504;52.066;6.096;2022-11-03T04:48:39;6;6;
47741;PMS5003;33504;52.066;6.096;2022-11-03T04:51:10;6;5;
47741;PMS5003;33504;52.066;6.096;2022-11-03T04:53:42;4;3;
47741;PMS5003;33504;52.066;6.096;2022-11-03T04:56:14;4;4;
47741;PMS5003;33504;52.066;6.096;2022-11-03T04:58:43;5;5;
47741;PMS5003;33504;52.066;6.096;2022-11-03T05:01:11;7;5;
47741;PMS5003;33504;52.066;6.096;2022-11-03T05:03:40;6;5;
47741;PMS5003;33504;52.066;6.096;2022-11-03T05:06:09;8;6;
47741;PMS5003;33504;52.066;6.096;2022-11-03T05:08:39;7;6;
47741;PMS5003;33504;52.066;6.096;2022-11-03T05:11:11;5;4;
47741;PMS5003;33504;52.066;6.096;2022-11-03T05:13:44;6;4;
47741;PMS5003;33504;52.066;6.096;2022-11-03T05:16:12;5;4;
47741;PMS5003;33504;52.066;6.096;2022-11-03T05:18:39;4;4;
47741;PMS5003;33504;52.066;6.096;2022-11-03T05:21:11;7;6;
47741;PMS5003;33504;52.066;6.096;2022-11-03T05:23:42;7;3;
47741;PMS5003;33504;52.066;6.096;2022-11-03T05:26:13;7;6;
47741;PMS5003;33504;52.066;6.096;2022-11-03T05:28:45;5;5;
47741;PMS5003;33504;52.066;6.096;2022-11-03T05:31:20;5;4;
47741;PMS5003;33504;52.066;6.096;2022-11-03T05:33:49;3;3;
47741;PMS5003;33504;52.066;6.096;2022-11-03T05:36:19;7;6;
47741;PMS5003;33504;52.066;6.096;2022-11-03T05:38:47;8;7;
47741;PMS5003;33504;52.066;6.096;2022-11-03T05:41:15;5;5;
47741;PMS5003;33504;52.066;6.096;2022-11-03T05:43:51;10;8;
47741;PMS5003;33504;52.066;6.096;2022-11-03T05:46:22;6;6;
47741;PMS5003;33504;52.066;6.096;2022-11-03T05:48:52;8;5;
47741;PMS5003;33504;52.066;6.096;2022-11-03T05:51:20;10;8;
47741;PMS5003;33504;52.066;6.096;2022-11-03T05:53:50;5;5;
47741;PMS5003;33504;52.066;6.096;2022-11-03T05:56:21;7;5;
47741;PMS5003;33504;52.066;6.096;2022-11-03T05:58:50;6;5;
47741;PMS5003;33504;52.066;6.096;2022-11-03T06:01:19;6;6;
47741;PMS5003;33504;52.066;6.096;2022-11-03T06:03:51;5;4;
47741;PMS5003;33504;52.066;6.096;2022-11-03T06:06:19;6;6;
47741;PMS5003;33504;52.066;6.096;2022-11-03T06:08:47;6;5;
47741;PMS5003;33504;52.066;6.096;2022-11-03T06:11:15;7;5;
47741;PMS5003;33504;52.066;6.096;2022-11-03T06:13:53;4;4;
47741;PMS5003;33504;52.066;6.096;2022-11-03T06:16:29;9;7;
47741;PMS5003;33504;52.066;6.096;2022-11-03T06:19:06;6;6;
47741;PMS5003;33504;52.066;6.096;2022-11-03T06:21:44;6;5;
47741;PMS5003;33504;52.066;6.096;2022-11-03T06:24:13;2;2;
47741;PMS5003;33504;52.066;6.096;2022-11-03T06:26:42;7;5;
47741;PMS5003;33504;52.066;6.096;2022-11-03T06:29:13;5;5;
47741;PMS5003;33504;52.066;6.096;2022-11-03T06:31:41;7;5;
47741;PMS5003;33504;52.066;6.096;2022-11-03T06:34:13;7;6;
47741;PMS5003;33504;52.066;6.096;2022-11-03T06:36:52;7;5;
47741;PMS5003;33504;52.066;6.096;2022-11-03T06:39:22;5;5;
47741;PMS5003;33504;52.066;6.096;2022-11-03T06:41:50;8;5;
47741;PMS5003;33504;52.066;6.096;2022-11-03T06:44:19;8;7;
47741;PMS5003;33504;52.066;6.096;2022-11-03T06:46:49;7;6;
47741;PMS5003;33504;52.066;6.096;2022-11-03T06:49:23;6;5;
47741;PMS5003;33504;52.066;6.096;2022-11-03T06:51:53;9;8;
47741;PMS5003;33504;52.066;6.096;2022-11-03T06:54:21;7;6;
47741;PMS5003;33504;52.066;6.096;2022-11-03T06:56:48;5;4;
47741;PMS5003;33504;52.066;6.096;2022-11-03T06:59:16;4;4;
47741;PMS5003;33504;52.066;6.096;2022-11-03T07:01:45;6;5;
47741;PMS5003;33504;52.066;6.096;2022-11-03T07:04:15;7;6;
47741;PMS5003;33504;52.066;6.096;2022-11-03T07:06:46;4;4;
47741;PMS5003;33504;52.066;6.096;2022-11-03T07:09:14;4;4;
47741;PMS5003;33504;52.066;6.096;2022-11-03T07:11:45;6;5;
47741;PMS5003;33504;52.066;6.096;2022-11-03T07:14:14;7;5;
47741;PMS5003;33504;52.066;6.096;2022-11-03T07:16:45;6;5;
47741;PMS5003;33504;52.066;6.096;2022-11-03T07:19:16;5;4;
47741;PMS5003;33504;52.066;6.096;2022-11-03T07:21:45;6;6;
47741;PMS5003;33504;52.066;6.096;2022-11-03T07:24:16;10;7;
47741;PMS5003;33504;52.066;6.096;2022-11-03T07:26:46;6;6;
47741;PMS5003;33504;52.066;6.096;2022-11-03T07:29:20;8;7;
47741;PMS5003;33504;52.066;6.096;2022-11-03T07:31:52;7;6;
47741;PMS5003;33504;52.066;6.096;2022-11-03T07:34:21;11;8;
47741;PMS5003;33504;52.066;6.096;2022-11-03T07:36:51;5;5;
47741;PMS5003;33504;52.066;6.096;2022-11-03T07:39:19;6;5;
47741;PMS5003;33504;52.066;6.096;2022-11-03T07:41:46;4;4;
47741;PMS5003;33504;52.066;6.096;2022-11-03T07:44:15;7;7;
47741;PMS5003;33504;52.066;6.096;2022-11-03T07:46:44;9;7;
47741;PMS5003;33504;52.066;6.096;2022-11-03T07:49:17;6;6;
47741;PMS5003;33504;52.066;6.096;2022-11-03T07:51:49;9;8;
47741;PMS5003;33504;52.066;6.096;2022-11-03T07:54:18;4;4;
47741;PMS5003;33504;52.066;6.096;2022-11-03T07:56:47;7;7;
47741;PMS5003;33504;52.066;6.096;2022-11-03T07:59:18;5;5;
47741;PMS5003;33504;52.066;6.096;2022-11-03T08:01:47;6;6;
47741;PMS5003;33504;52.066;6.096;2022-11-03T08:04:16;7;6;
47741;PMS5003;33504;52.066;6.096;2022-11-03T08:06:45;6;5;
47741;PMS5003;33504;52.066;6.096;2022-11-03T08:09:13;4;4;
47741;PMS5003;33504;52.066;6.096;2022-11-03T08:11:41;5;5;
47741;PMS5003;33504;52.066;6.096;2022-11-03T08:14:07;7;6;
47741;PMS5003;33504;52.066;6.096;2022-11-03T08:16:35;6;6;
47741;PMS5003;33504;52.066;6.096;2022-11-03T08:19:02;7;6;
47741;PMS5003;33504;52.066;6.096;2022-11-03T08:21:29;6;5;
47741;PMS5003;33504;52.066;6.096;2022-11-03T08:23:56;8;7;
47741;PMS5003;33504;52.066;6.096;2022-11-03T08:26:24;5;5;
47741;PMS5003;33504;52.066;6.096;2022-11-03T08:28:51;8;6;
47741;PMS5003;33504;52.066;6.096;2022-11-03T08:31:19;9;7;
47741;PMS5003;33504;52.066;6.096;2022-11-03T08:33:46;14;11;
47741;PMS5003;33504;52.066;6.096;2022-11-03T08:36:13;7;6;
47741;PMS5003;33504;52.066;6.096;2022-11-03T08:38:40;10;10;
47741;PMS5003;33504;52.066;6.096;2022-11-03T08:41:07;8;8;
47741;PMS5003;33504;52.066;6.096;2022-11-03T08:43:35;7;6;
47741;PMS5003;33504;52.066;6.096;2022-11-03T08:46:01;6;6;
47741;PMS5003;33504;52.066;6.096;2022-11-03T08:48:29;7;7;
47741;PMS5003;33504;52.066;6.096;2022-11-03T08:50:56;7;7;
47741;PMS5003;33504;52.066;6.096;2022-11-03T08:53:23;11;8;
47741;PMS5003;33504;52.066;6.096;2022-11-03T08:55:52;8;7;
47741;PMS5003;33504;52.066;6.096;2022-11-03T08:58:19;5;5;
47741;PMS5003;33504;52.066;6.096;2022-11-03T09:00:47;7;6;
47741;PMS5003;33504;52.066;6.096;2022-11-03T09:03:14;12;8;
47741;PMS5003;33504;52.066;6.096;2022-11-03T09:05:42;10;7;
47741;PMS5003;33504;52.066;6.096;2022-11-03T09:08:08;6;5;
47741;PMS5003;33504;52.066;6.096;2022-11-03T09:10:36;7;7;
47741;PMS5003;33504;52.066;6.096;2022-11-03T09:13:03;7;7;
47741;PMS5003;33504;52.066;6.096;2022-11-03T09:15:30;7;7;
47741;PMS5003;33504;52.066;6.096;2022-11-03T09:17:57;10;9;
47741;PMS5003;33504;52.066;6.096;2022-11-03T09:20:25;7;6;
47741;PMS5003;33504;52.066;6.096;2022-11-03T09:22:52;7;7;
47741;PMS5003;33504;52.066;6.096;2022-11-03T09:25:19;11;10;
47741;PMS5003;33504;52.066;6.096;2022-11-03T09:27:45;10;10;
47741;PMS5003;33504;52.066;6.096;2022-11-03T09:30:12;6;6;
47741;PMS5003;33504;52.066;6.096;2022-11-03T09:32:39;7;7;
47741;PMS5003;33504;52.066;6.096;2022-11-03T09:35:07;8;8;
47741;PMS5003;33504;52.066;6.096;2022-11-03T09:37:34;9;8;
47741;PMS5003;33504;52.066;6.096;2022-11-03T09:40:02;8;7;
47741;PMS5003;33504;52.066;6.096;2022-11-03T09:42:30;7;7;
47741;PMS5003;33504;52.066;6.096;2022-11-03T09:44:57;8;7;
47741;PMS5003;33504;52.066;6.096;2022-11-03T09:47:26;7;6;
47741;PMS5003;33504;52.066;6.096;2022-11-03T09:49:56;5;4;
47741;PMS5003;33504;52.066;6.096;2022-11-03T09:52:23;6;5;
47741;PMS5003;33504;52.066;6.096;2022-11-03T09:54:51;8;7;
47741;PMS5003;33504;52.066;6.096;2022-11-03T09:57:19;26;25;
47741;PMS5003;33504;52.066;6.096;2022-11-03T09:59:47;22;20;
47741;PMS5003;33504;52.066;6.096;2022-11-03T10:02:19;13;13;
47741;PMS5003;33504;52.066;6.096;2022-11-03T10:04:49;12;12;
47741;PMS5003;33504;52.066;6.096;2022-11-03T10:07:18;13;11;
47741;PMS5003;33504;52.066;6.096;2022-11-03T10:09:47;14;13;
47741;PMS5003;33504;52.066;6.096;2022-11-03T10:12:16;15;14;
47741;PMS5003;33504;52.066;6.096;2022-11-03T10:14:44;10;10;
47741;PMS5003;33504;52.066;6.096;2022-11-03T10:17:14;12;10;
47741;PMS5003;33504;52.066;6.096;2022-11-03T10:19:43;12;10;
47741;PMS5003;33504;52.066;6.096;2022-11-03T10:22:13;7;7;
47741;PMS5003;33504;52.066;6.096;2022-11-03T10:24:41;11;10;
47741;PMS5003;33504;52.066;6.096;2022-11-03T10:27:18;12;12;
47741;PMS5003;33504;52.066;6.096;2022-11-03T10:30:02;8;8;
47741;PMS5003;33504;52.066;6.096;2022-11-03T10:32:33;16;15;
47741;PMS5003;33504;52.066;6.096;2022-11-03T10:35:00;10;9;
47741;PMS5003;33504;52.066;6.096;2022-11-03T10:37:29;9;9;
47741;PMS5003;33504;52.066;6.096;2022-11-03T10:39:56;10;8;
47741;PMS5003;33504;52.066;6.096;2022-11-03T10:42:24;8;7;
47741;PMS5003;33504;52.066;6.096;2022-11-03T10:44:53;9;8;
47741;PMS5003;33504;52.066;6.096;2022-11-03T10:47:25;10;9;
47741;PMS5003;33504;52.066;6.096;2022-11-03T10:49:58;13;12;
47741;PMS5003;33504;52.066;6.096;2022-11-03T10:52:26;11;10;
47741;PMS5003;33504;52.066;6.096;2022-11-03T10:54:55;10;10;
47741;PMS5003;33504;52.066;6.096;2022-11-03T10:57:25;8;7;
47741;PMS5003;33504;52.066;6.096;2022-11-03T10:59:53;10;9;
47741;PMS5003;33504;52.066;6.096;2022-11-03T11:02:22;10;9;
47741;PMS5003;33504;52.066;6.096;2022-11-03T11:04:53;7;7;
47741;PMS5003;33504;52.066;6.096;2022-11-03T11:07:23;6;6;
47741;PMS5003;33504;52.066;6.096;2022-11-03T11:09:54;6;6;
47741;PMS5003;33504;52.066;6.096;2022-11-03T11:12:21;12;11;
47741;PMS5003;33504;52.066;6.096;2022-11-03T11:14:51;11;11;
47741;PMS5003;33504;52.066;6.096;2022-11-03T11:17:53;10;8;
47741;PMS5003;33504;52.066;6.096;2022-11-03T11:20:29;7;6;
47741;PMS5003;33504;52.066;6.096;2022-11-03T11:23:44;6;6;
47741;PMS5003;33504;52.066;6.096;2022-11-03T11:26:13;9;7;
47741;PMS5003;33504;52.066;6.096;2022-11-03T11:28:44;8;8;
47741;PMS5003;33504;52.066;6.096;2022-11-03T11:31:28;4;4;
47741;PMS5003;33504;52.066;6.096;2022-11-03T11:34:44;4;4;
47741;PMS5003;33504;52.066;6.096;2022-11-03T11:37:43;4;4;
47741;PMS5003;33504;52.066;6.096;2022-11-03T11:40:11;5;4;
47741;PMS5003;33504;52.066;6.096;2022-11-03T11:43:22;5;4;
47741;PMS5003;33504;52.066;6.096;2022-11-03T11:46:31;5;5;
47741;PMS5003;33504;52.066;6.096;2022-11-03T11:49:20;4;4;
47741;PMS5003;33504;52.066;6.096;2022-11-03T11:51:47;5;4;
47741;PMS5003;33504;52.066;6.096;2022-11-03T11:54:15;5;4;
47741;PMS5003;33504;52.066;6.096;2022-11-03T11:56:46;5;5;
47741;PMS5003;33504;52.066;6.096;2022-11-03T11:59:15;5;5;
47741;PMS5003;33504;52.066;6.096;2022-11-03T12:01:47;5;5;
47741;PMS5003;33504;52.066;6.096;2022-11-03T12:04:16;5;4;
47741;PMS5003;33504;52.066;6.096;2022-11-03T12:06:46;3;3;
47741;PMS5003;33504;52.066;6.096;2022-11-03T12:09:15;3;3;
47741;PMS5003;33504;52.066;6.096;2022-11-03T12:11:43;5;4;
47741;PMS5003;33504;52.066;6.096;2022-11-03T12:14:21;6;5;
47741;PMS5003;33504;52.066;6.096;2022-11-03T12:16:49;7;5;
47741;PMS5003;33504;52.066;6.096;2022-11-03T12:19:32;7;6;
47741;PMS5003;33504;52.066;6.096;2022-11-03T12:22:02;6;6;
47741;PMS5003;33504;52.066;6.096;2022-11-03T12:24:34;6;5;
47741;PMS5003;33504;52.066;6.096;2022-11-03T12:27:15;5;5;
47741;PMS5003;33504;52.066;6.096;2022-11-03T12:29:45;7;6;
47741;PMS5003;33504;52.066;6.096;2022-11-03T12:32:12;4;4;
47741;PMS5003;33504;52.066;6.096;2022-11-03T12:34:39;4;3;
47741;PMS5003;33504;52.066;6.096;2022-11-03T12:37:06;3;3;
47741;PMS5003;33504;52.066;6.096;2022-11-03T12:39:33;6;5;
47741;PMS5003;33504;52.066;6.096;2022-11-03T12:42:00;5;5;
47741;PMS5003;33504;52.066;6.096;2022-11-03T12:44:27;6;4;
47741;PMS5003;33504;52.066;6.096;2022-11-03T12:46:54;5;4;
47741;PMS5003;33504;52.066;6.096;2022-11-03T12:49:21;5;4;
47741;PMS5003;33504;52.066;6.096;2022-11-03T12:51:48;4;3;
47741;PMS5003;33504;52.066;6.096;2022-11-03T12:54:15;7;6;
47741;PMS5003;33504;52.066;6.096;2022-11-03T12:56:43;6;6;
47741;PMS5003;33504;52.066;6.096;2022-11-03T12:59:09;5;5;
47741;PMS5003;33504;52.066;6.096;2022-11-03T13:01:36;7;6;
47741;PMS5003;33504;52.066;6.096;2022-11-03T13:04:03;5;4;
47741;PMS5003;33504;52.066;6.096;2022-11-03T13:06:30;6;5;
47741;PMS5003;33504;52.066;6.096;2022-11-03T13:08:58;4;4;
47741;PMS5003;33504;52.066;6.096;2022-11-03T13:11:24;5;4;
47741;PMS5003;33504;52.066;6.096;2022-11-03T13:13:51;3;3;
47741;PMS5003;33504;52.066;6.096;2022-11-03T13:16:18;6;5;
47741;PMS5003;33504;52.066;6.096;2022-11-03T13:18:45;7;5;
47741;PMS5003;33504;52.066;6.096;2022-11-03T13:21:13;4;4;
47741;PMS5003;33504;52.066;6.096;2022-11-03T13:23:40;4;4;
47741;PMS5003;33504;52.066;6.096;2022-11-03T13:26:08;3;2;
47741;PMS5003;33504;52.066;6.096;2022-11-03T13:28:35;4;4;
47741;PMS5003;33504;52.066;6.096;2022-11-03T13:31:02;7;4;
47741;PMS5003;33504;52.066;6.096;2022-11-03T13:33:29;5;4;
47741;PMS5003;33504;52.066;6.096;2022-11-03T13:35:56;4;4;
47741;PMS5003;33504;52.066;6.096;2022-11-03T13:38:23;4;4;
47741;PMS5003;33504;52.066;6.096;2022-11-03T13:40:49;6;5;
47741;PMS5003;33504;52.066;6.096;2022-11-03T13:43:16;5;5;
47741;PMS5003;33504;52.066;6.096;2022-11-03T13:45:43;3;3;
47741;PMS5003;33504;52.066;6.096;2022-11-03T13:48:10;3;2;
47741;PMS5003;33504;52.066;6.096;2022-11-03T13:50:37;4;4;
47741;PMS5003;33504;52.066;6.096;2022-11-03T13:53:03;5;4;
47741;PMS5003;33504;52.066;6.096;2022-11-03T13:55:30;5;4;
47741;PMS5003;33504;52.066;6.096;2022-11-03T13:57:56;7;6;
47741;PMS5003;33504;52.066;6.096;2022-11-03T14:00:23;4;4;
47741;PMS5003;33504;52.066;6.096;2022-11-03T14:02:50;3;3;
47741;PMS5003;33504;52.066;6.096;2022-11-03T14:05:17;4;3;
47741;PMS5003;33504;52.066;6.096;2022-11-03T14:07:44;5;5;
47741;PMS5003;33504;52.066;6.096;2022-11-03T14:10:11;3;3;
47741;PMS5003;33504;52.066;6.096;2022-11-03T14:12:37;5;5;
47741;PMS5003;33504;52.066;6.096;2022-11-03T14:15:05;7;6;
47741;PMS5003;33504;52.066;6.096;2022-11-03T14:17:33;4;4;
47741;PMS5003;33504;52.066;6.096;2022-11-03T14:20:01;7;6;
47741;PMS5003;33504;52.066;6.096;2022-11-03T15:15:31;10;9;
47741;PMS5003;33504;52.066;6.096;2022-11-03T15:15:33;10;9;
47741;PMS5003;33504;52.066;6.096;2022-11-03T15:18:00;6;6;
47741;PMS5003;33504;52.066;6.096;2022-11-03T15:20:28;7;5;
47741;PMS5003;33504;52.066;6.096;2022-11-03T15:22:55;8;7;
47741;PMS5003;33504;52.066;6.096;2022-11-03T15:25:22;8;8;
47741;PMS5003;33504;52.066;6.096;2022-11-03T15:27:49;7;7;
47741;PMS5003;33504;52.066;6.096;2022-11-03T15:30:15;9;7;
47741;PMS5003;33504;52.066;6.096;2022-11-03T15:32:42;6;6;
47741;PMS5003;33504;52.066;6.096;2022-11-03T15:35:09;9;7;
47741;PMS5003;33504;52.066;6.096;2022-11-03T15:37:36;9;8;
47741;PMS5003;33504;52.066;6.096;2022-11-03T15:40:03;8;7;
47741;PMS5003;33504;52.066;6.096;2022-11-03T15:42:31;13;13;
47741;PMS5003;33504;52.066;6.096;2022-11-03T15:44:58;15;14;
47741;PMS5003;33504;52.066;6.096;2022-11-03T15:47:25;12;12;
47741;PMS5003;33504;52.066;6.096;2022-11-03T15:49:52;14;13;
47741;PMS5003;33504;52.066;6.096;2022-11-03T15:52:19;10;10;
47741;PMS5003;33504;52.066;6.096;2022-11-03T15:54:46;10;10;
47741;PMS5003;33504;52.066;6.096;2022-11-03T15:57:12;10;10;
47741;PMS5003;33504;52.066;6.096;2022-11-03T15:59:40;8;8;
47741;PMS5003;33504;52.066;6.096;2022-11-03T16:02:07;10;10;
47741;PMS5003;33504;52.066;6.096;2022-11-03T16:04:35;11;10;
47741;PMS5003;33504;52.066;6.096;2022-11-03T16:07:02;16;12;
47741;PMS5003;33504;52.066;6.096;2022-11-03T16:09:28;12;12;
47741;PMS5003;33504;52.066;6.096;2022-11-03T16:11:55;14;13;
47741;PMS5003;33504;52.066;6.096;2022-11-03T16:14:22;25;24;
47741;PMS5003;33504;52.066;6.096;2022-11-03T16:16:50;21;20;
47741;PMS5003;33504;52.066;6.096;2022-11-03T16:19:17;10;9;
47741;PMS5003;33504;52.066;6.096;2022-11-03T16:21:44;13;12;
47741;PMS5003;33504;52.066;6.096;2022-11-03T16:24:10;9;9;
47741;PMS5003;33504;52.066;6.096;2022-11-03T16:26:38;12;10;
47741;PMS5003;33504;52.066;6.096;2022-11-03T16:29:05;11;10;
47741;PMS5003;33504;52.066;6.096;2022-11-03T16:31:32;12;10;
47741;PMS5003;33504;52.066;6.096;2022-11-03T16:33:59;12;10;
47741;PMS5003;33504;52.066;6.096;2022-11-03T16:36:26;13;13;
47741;PMS5003;33504;52.066;6.096;2022-11-03T16:38:53;16;14;
47741;PMS5003;33504;52.066;6.096;2022-11-03T16:41:20;14;14;
47741;PMS5003;33504;52.066;6.096;2022-11-03T16:43:47;12;10;
47741;PMS5003;33504;52.066;6.096;2022-11-03T16:46:14;12;12;
47741;PMS5003;33504;52.066;6.096;2022-11-03T16:48:40;10;10;
47741;PMS5003;33504;52.066;6.096;2022-11-03T16:51:08;12;12;
47741;PMS5003;33504;52.066;6.096;2022-11-03T16:53:35;10;9;
47741;PMS5003;33504;52.066;6.096;2022-11-03T16:56:03;11;9;
47741;PMS5003;33504;52.066;6.096;2022-11-03T16:58:30;11;11;
47741;PMS5003;33504;52.066;6.096;2022-11-03T17:00:57;13;11;
47741;PMS5003;33504;52.066;6.096;2022-11-03T17:03:25;14;14;
47741;PMS5003;33504;52.066;6.096;2022-11-03T17:05:51;15;12;
47741;PMS5003;33504;52.066;6.096;2022-11-03T17:08:18;14;13;
47741;PMS5003;33504;52.066;6.096;2022-11-03T17:10:45;14;12;
47741;PMS5003;33504;52.066;6.096;2022-11-03T17:13:12;13;11;
47741;PMS5003;33504;52.066;6.096;2022-11-03T17:15:40;16;14;
47741;PMS5003;33504;52.066;6.096;2022-11-03T17:18:07;14;13;
47741;PMS5003;33504;52.066;6.096;2022-11-03T17:20:34;15;14;
47741;PMS5003;33504;52.066;6.096;2022-11-03T17:23:01;16;15;
47741;PMS5003;33504;52.066;6.096;2022-11-03T17:25:29;15;14;
47741;PMS5003;33504;52.066;6.096;2022-11-03T17:27:56;16;15;
47741;PMS5003;33504;52.066;6.096;2022-11-03T17:30:25;20;18;
47741;PMS5003;33504;52.066;6.096;2022-11-03T17:32:54;20;17;
47741;PMS5003;33504;52.066;6.096;2022-11-03T17:35:24;20;19;
47741;PMS5003;33504;52.066;6.096;2022-11-03T17:37:59;18;15;
47741;PMS5003;33504;52.066;6.096;2022-11-03T17:40:28;19;18;
47741;PMS5003;33504;52.066;6.096;2022-11-03T17:42:56;18;17;
47741;PMS5003;33504;52.066;6.096;2022-11-03T17:45:24;17;17;
47741;PMS5003;33504;52.066;6.096;2022-11-03T17:47:52;21;20;